الصفحة الرئيسية
METAR-TAF:

METAR-TAF

مطار :

مطار مليلية

مليلية, إسبانيا

دائرة عرض: 35-17N, خط طول: 002-57W, ارتفاع: 47 متر

مراقبة الطقس الحالي

تاريخ ووقت الإصدار 31 دقيقة قبل الساعة 11:00UTC
ريح 13 عقدة من الغرب, الاتجاه يتراوح بين الغرب/الجنوب الغربي و الشمال الغربي
درجة الحرارة 19°درجة مئوية
الرطوبة 52%
ضغط 1024 hPa
الرؤية 10 كم أو أكثر
الغيوم لا تقل 1500 م ولا وجود لمزنة ركامية السحاب الأسود

METAR: GEML 111100Z 27013KT 240V310 CAVOK 19/09 Q1024

زمن: 12:31 (11:31 UTC)

توقعات

تاريخ ووقت الإصدار 3ساعات و 31 دقيقة قبل الساعة 08:00UTC
التوقعات صالحة من11 الساعة 09 UTC إلى 12 الساعة 09 UTC
ريح 8 عقدة من الغرب
الرؤية 10 كم أو أكثر
الغيوم لا تقل 1500 م ولا وجود لمزنة ركامية السحاب الأسود
أصبح
من 11 الساعة 10 UTC إلى 11 الساعة 12 UTC
ريح 18 عقدة من الغرب
نظرية الاحتمالات 40% :
مؤقت
من 11 الساعة 11 UTC إلى 12 الساعة 01 UTC
ريح 20 عقدة من الغرب تتزايد حتى 35 عقدة

TAF: GEML 110800Z 1109/1209 27008KT CAVOK TX19/1113Z TN12/1206Z BECMG 1110/1112 27018KT PROB40 TEMPO 1111/1201 27020G35KT

أرصاد الطقس والتوقعات من أكثر من 4000 مطار (تقارير الطقس للمطار METAR والتنبؤ بالطقس بالمطارTAF).

المحطات المتاحة هي النقط الصفراء والحمراء على الخريطة.

حرك المؤشر فوق النقطة لمعرفة اسم المحطة.

ثم انقر لمعرفة أرصاد وتوقعات الطقس.

لتغيير الخارطة: اضغط على الأزرار الخضراء مع رمز الصليب الأسود للتكبير. على الزر الأخضر مع شرطة للتصغير، أو على الأسهم الخضراء للخرائط المجاورة.


METAR-TAF: